sensor_id;sensor_type;location;lat;lon;timestamp;temperature;humidity
26821;DHT22;37186;51.394;5.454;2022-12-29T00:02:49;12.30;90.20
26821;DHT22;37186;51.394;5.454;2022-12-29T00:05:56;12.30;90.20
26821;DHT22;37186;51.394;5.454;2022-12-29T00:08:58;12.30;90.30
26821;DHT22;37186;51.394;5.454;2022-12-29T00:11:59;12.30;90.20
26821;DHT22;37186;51.394;5.454;2022-12-29T00:15:00;12.30;90.20
26821;DHT22;37186;51.394;5.454;2022-12-29T00:18:19;12.30;90.20
26821;DHT22;37186;51.394;5.454;2022-12-29T00:21:22;12.30;90.20
26821;DHT22;37186;51.394;5.454;2022-12-29T00:24:41;12.30;90.20
26821;DHT22;37186;51.394;5.454;2022-12-29T00:28:00;12.30;90.20
26821;DHT22;37186;51.394;5.454;2022-12-29T00:31:19;12.30;90.20
26821;DHT22;37186;51.394;5.454;2022-12-29T00:34:38;12.30;90.20
26821;DHT22;37186;51.394;5.454;2022-12-29T00:38:03;12.30;90.20
26821;DHT22;37186;51.394;5.454;2022-12-29T00:41:23;12.30;90.20
26821;DHT22;37186;51.394;5.454;2022-12-29T00:44:42;12.30;90.30
26821;DHT22;37186;51.394;5.454;2022-12-29T00:47:42;12.30;90.30
26821;DHT22;37186;51.394;5.454;2022-12-29T00:50:43;12.30;90.30
26821;DHT22;37186;51.394;5.454;2022-12-29T00:53:43;12.30;90.30
26821;DHT22;37186;51.394;5.454;2022-12-29T00:56:46;12.30;90.20
26821;DHT22;37186;51.394;5.454;2022-12-29T00:59:47;12.30;90.30
26821;DHT22;37186;51.394;5.454;2022-12-29T01:02:48;12.30;90.20
26821;DHT22;37186;51.394;5.454;2022-12-29T01:05:48;12.30;90.60
26821;DHT22;37186;51.394;5.454;2022-12-29T01:08:50;12.30;90.20
26821;DHT22;37186;51.394;5.454;2022-12-29T01:12:11;12.40;90.30
26821;DHT22;37186;51.394;5.454;2022-12-29T01:15:13;12.30;90.30
26821;DHT22;37186;51.394;5.454;2022-12-29T01:18:14;12.40;90.30
26821;DHT22;37186;51.394;5.454;2022-12-29T01:21:14;12.30;90.30
26821;DHT22;37186;51.394;5.454;2022-12-29T01:24:16;12.40;90.20
26821;DHT22;37186;51.394;5.454;2022-12-29T01:27:17;12.40;90.20
26821;DHT22;37186;51.394;5.454;2022-12-29T01:30:17;12.40;90.20
26821;DHT22;37186;51.394;5.454;2022-12-29T01:33:18;12.40;90.20
26821;DHT22;37186;51.394;5.454;2022-12-29T01:36:19;12.40;90.20
26821;DHT22;37186;51.394;5.454;2022-12-29T01:39:19;12.40;90.20
26821;DHT22;37186;51.394;5.454;2022-12-29T01:42:24;12.40;90.20
26821;DHT22;37186;51.394;5.454;2022-12-29T01:45:25;12.40;90.20
26821;DHT22;37186;51.394;5.454;2022-12-29T01:48:26;12.40;90.20
26821;DHT22;37186;51.394;5.454;2022-12-29T01:51:27;12.30;90.20
26821;DHT22;37186;51.394;5.454;2022-12-29T01:54:40;12.30;90.20
26821;DHT22;37186;51.394;5.454;2022-12-29T01:57:44;12.40;90.20
26821;DHT22;37186;51.394;5.454;2022-12-29T02:00:46;12.40;90.20
26821;DHT22;37186;51.394;5.454;2022-12-29T02:03:47;12.40;90.10
26821;DHT22;37186;51.394;5.454;2022-12-29T02:06:53;12.40;90.10
26821;DHT22;37186;51.394;5.454;2022-12-29T02:09:55;12.40;90.20
26821;DHT22;37186;51.394;5.454;2022-12-29T02:12:56;12.40;90.10
26821;DHT22;37186;51.394;5.454;2022-12-29T02:29:09;12.50;90.10
26821;DHT22;37186;51.394;5.454;2022-12-29T02:35:35;12.50;90.10
26821;DHT22;37186;51.394;5.454;2022-12-29T02:42:35;12.50;90.10
26821;DHT22;37186;51.394;5.454;2022-12-29T02:45:51;12.50;90.10
26821;DHT22;37186;51.394;5.454;2022-12-29T02:49:24;12.50;90.10
26821;DHT22;37186;51.394;5.454;2022-12-29T02:56:08;12.50;90.10
26821;DHT22;37186;51.394;5.454;2022-12-29T02:59:09;12.50;90.10
26821;DHT22;37186;51.394;5.454;2022-12-29T03:02:30;12.50;90.00
26821;DHT22;37186;51.394;5.454;2022-12-29T03:06:12;12.50;90.00
26821;DHT22;37186;51.394;5.454;2022-12-29T03:09:48;12.50;90.00
26821;DHT22;37186;51.394;5.454;2022-12-29T03:12:59;12.50;90.00
26821;DHT22;37186;51.394;5.454;2022-12-29T03:16:36;12.50;90.00
26821;DHT22;37186;51.394;5.454;2022-12-29T03:19:44;12.50;89.90
26821;DHT22;37186;51.394;5.454;2022-12-29T03:22:50;12.50;90.00
26821;DHT22;37186;51.394;5.454;2022-12-29T03:25:56;12.50;90.00
26821;DHT22;37186;51.394;5.454;2022-12-29T03:28:56;12.40;90.00
26821;DHT22;37186;51.394;5.454;2022-12-29T03:31:58;12.40;90.00
26821;DHT22;37186;51.394;5.454;2022-12-29T03:35:00;12.50;89.90
26821;DHT22;37186;51.394;5.454;2022-12-29T03:38:18;12.40;90.00
26821;DHT22;37186;51.394;5.454;2022-12-29T03:41:23;12.40;89.90
26821;DHT22;37186;51.394;5.454;2022-12-29T03:44:35;12.40;89.70
26821;DHT22;37186;51.394;5.454;2022-12-29T03:47:36;12.40;89.80
26821;DHT22;37186;51.394;5.454;2022-12-29T03:50:37;12.40;89.60
26821;DHT22;37186;51.394;5.454;2022-12-29T03:53:38;12.40;89.60
26821;DHT22;37186;51.394;5.454;2022-12-29T03:56:39;12.30;89.80
26821;DHT22;37186;51.394;5.454;2022-12-29T03:59:39;12.30;89.80
26821;DHT22;37186;51.394;5.454;2022-12-29T04:02:40;12.30;89.70
26821;DHT22;37186;51.394;5.454;2022-12-29T04:05:40;12.30;89.70
26821;DHT22;37186;51.394;5.454;2022-12-29T04:08:41;12.30;89.70
26821;DHT22;37186;51.394;5.454;2022-12-29T04:11:42;12.20;89.60
26821;DHT22;37186;51.394;5.454;2022-12-29T04:14:42;12.20;89.70
26821;DHT22;37186;51.394;5.454;2022-12-29T04:17:43;12.20;89.60
26821;DHT22;37186;51.394;5.454;2022-12-29T04:20:44;12.20;89.70
26821;DHT22;37186;51.394;5.454;2022-12-29T04:24:00;12.10;89.70
26821;DHT22;37186;51.394;5.454;2022-12-29T04:27:00;12.10;89.50
26821;DHT22;37186;51.394;5.454;2022-12-29T04:30:01;12.10;89.60
26821;DHT22;37186;51.394;5.454;2022-12-29T04:33:01;12.10;89.40
26821;DHT22;37186;51.394;5.454;2022-12-29T04:36:02;12.10;89.10
26821;DHT22;37186;51.394;5.454;2022-12-29T04:39:03;12.00;89.20
26821;DHT22;37186;51.394;5.454;2022-12-29T04:42:05;12.00;89.00
26821;DHT22;37186;51.394;5.454;2022-12-29T04:45:06;12.00;88.90
26821;DHT22;37186;51.394;5.454;2022-12-29T04:48:07;11.90;89.80
26821;DHT22;37186;51.394;5.454;2022-12-29T04:51:07;11.90;88.90
26821;DHT22;37186;51.394;5.454;2022-12-29T04:54:08;11.80;89.10
26821;DHT22;37186;51.394;5.454;2022-12-29T04:57:08;11.80;88.80
26821;DHT22;37186;51.394;5.454;2022-12-29T05:00:09;11.80;89.10
26821;DHT22;37186;51.394;5.454;2022-12-29T05:03:10;11.80;89.10
26821;DHT22;37186;51.394;5.454;2022-12-29T05:06:11;11.80;89.30
26821;DHT22;37186;51.394;5.454;2022-12-29T05:09:11;11.70;89.10
26821;DHT22;37186;51.394;5.454;2022-12-29T05:12:12;11.70;89.10
26821;DHT22;37186;51.394;5.454;2022-12-29T05:15:12;11.70;89.00
26821;DHT22;37186;51.394;5.454;2022-12-29T05:18:13;11.70;89.10
26821;DHT22;37186;51.394;5.454;2022-12-29T05:21:14;11.70;89.10
26821;DHT22;37186;51.394;5.454;2022-12-29T05:24:14;11.70;89.20
26821;DHT22;37186;51.394;5.454;2022-12-29T05:27:15;11.70;89.30
26821;DHT22;37186;51.394;5.454;2022-12-29T05:30:16;11.70;89.20
26821;DHT22;37186;51.394;5.454;2022-12-29T05:33:17;11.70;89.10
26821;DHT22;37186;51.394;5.454;2022-12-29T05:36:18;11.70;89.10
26821;DHT22;37186;51.394;5.454;2022-12-29T05:39:18;11.70;88.90
26821;DHT22;37186;51.394;5.454;2022-12-29T05:42:19;11.70;89.10
26821;DHT22;37186;51.394;5.454;2022-12-29T05:45:19;11.70;89.10
26821;DHT22;37186;51.394;5.454;2022-12-29T05:48:20;11.70;89.00
26821;DHT22;37186;51.394;5.454;2022-12-29T05:51:21;11.70;89.10
26821;DHT22;37186;51.394;5.454;2022-12-29T05:54:21;11.70;89.30
26821;DHT22;37186;51.394;5.454;2022-12-29T05:57:22;11.70;89.00
26821;DHT22;37186;51.394;5.454;2022-12-29T06:00:22;11.70;88.90
26821;DHT22;37186;51.394;5.454;2022-12-29T06:03:23;11.70;88.80
26821;DHT22;37186;51.394;5.454;2022-12-29T06:06:24;11.70;89.10
26821;DHT22;37186;51.394;5.454;2022-12-29T06:09:24;11.70;89.10
26821;DHT22;37186;51.394;5.454;2022-12-29T06:12:25;11.70;88.90
26821;DHT22;37186;51.394;5.454;2022-12-29T06:15:25;11.70;88.90
26821;DHT22;37186;51.394;5.454;2022-12-29T06:18:26;11.70;89.00
26821;DHT22;37186;51.394;5.454;2022-12-29T06:21:26;11.70;88.80
26821;DHT22;37186;51.394;5.454;2022-12-29T06:24:27;11.70;88.70
26821;DHT22;37186;51.394;5.454;2022-12-29T06:27:28;11.70;88.50
26821;DHT22;37186;51.394;5.454;2022-12-29T06:30:29;11.70;88.80
26821;DHT22;37186;51.394;5.454;2022-12-29T06:33:30;11.80;88.40
26821;DHT22;37186;51.394;5.454;2022-12-29T06:36:30;11.80;88.70
26821;DHT22;37186;51.394;5.454;2022-12-29T06:39:31;11.80;88.80
26821;DHT22;37186;51.394;5.454;2022-12-29T06:42:31;11.80;88.60
26821;DHT22;37186;51.394;5.454;2022-12-29T06:45:32;11.80;88.70
26821;DHT22;37186;51.394;5.454;2022-12-29T06:48:32;11.80;88.20
26821;DHT22;37186;51.394;5.454;2022-12-29T06:51:33;11.80;88.20
26821;DHT22;37186;51.394;5.454;2022-12-29T06:54:33;11.80;88.30
26821;DHT22;37186;51.394;5.454;2022-12-29T06:57:34;11.80;88.10
26821;DHT22;37186;51.394;5.454;2022-12-29T07:00:34;11.80;88.20
26821;DHT22;37186;51.394;5.454;2022-12-29T07:03:35;11.80;87.70
26821;DHT22;37186;51.394;5.454;2022-12-29T07:06:35;11.80;88.10
26821;DHT22;37186;51.394;5.454;2022-12-29T07:09:36;11.80;87.80
26821;DHT22;37186;51.394;5.454;2022-12-29T07:12:36;11.80;87.90
26821;DHT22;37186;51.394;5.454;2022-12-29T07:15:37;11.80;87.40
26821;DHT22;37186;51.394;5.454;2022-12-29T07:18:38;11.80;86.80
26821;DHT22;37186;51.394;5.454;2022-12-29T07:21:38;11.80;86.90
26821;DHT22;37186;51.394;5.454;2022-12-29T07:24:39;11.80;87.30
26821;DHT22;37186;51.394;5.454;2022-12-29T07:27:40;11.70;87.20
26821;DHT22;37186;51.394;5.454;2022-12-29T07:30:40;11.70;86.60
26821;DHT22;37186;51.394;5.454;2022-12-29T07:33:41;11.70;86.60
26821;DHT22;37186;51.394;5.454;2022-12-29T07:36:41;11.70;86.60
26821;DHT22;37186;51.394;5.454;2022-12-29T07:39:42;11.70;87.10
26821;DHT22;37186;51.394;5.454;2022-12-29T07:42:43;11.70;87.00
26821;DHT22;37186;51.394;5.454;2022-12-29T07:45:43;11.70;86.30
26821;DHT22;37186;51.394;5.454;2022-12-29T07:48:44;11.70;87.00
26821;DHT22;37186;51.394;5.454;2022-12-29T07:51:44;11.70;87.30
26821;DHT22;37186;51.394;5.454;2022-12-29T07:54:45;11.70;86.90
26821;DHT22;37186;51.394;5.454;2022-12-29T07:57:45;11.70;87.10
26821;DHT22;37186;51.394;5.454;2022-12-29T08:00:46;11.70;87.20
26821;DHT22;37186;51.394;5.454;2022-12-29T08:03:46;11.80;86.80
26821;DHT22;37186;51.394;5.454;2022-12-29T08:06:47;11.80;86.40
26821;DHT22;37186;51.394;5.454;2022-12-29T08:09:47;11.80;87.00
26821;DHT22;37186;51.394;5.454;2022-12-29T08:12:48;11.80;86.30
26821;DHT22;37186;51.394;5.454;2022-12-29T08:15:48;11.80;85.80
26821;DHT22;37186;51.394;5.454;2022-12-29T08:18:49;11.80;85.80
26821;DHT22;37186;51.394;5.454;2022-12-29T08:21:49;11.80;86.10
26821;DHT22;37186;51.394;5.454;2022-12-29T08:24:51;11.80;85.40
26821;DHT22;37186;51.394;5.454;2022-12-29T08:27:52;11.80;85.20
26821;DHT22;37186;51.394;5.454;2022-12-29T08:30:52;11.80;85.90
26821;DHT22;37186;51.394;5.454;2022-12-29T08:33:53;11.80;86.10
26821;DHT22;37186;51.394;5.454;2022-12-29T08:36:53;11.80;85.10
26821;DHT22;37186;51.394;5.454;2022-12-29T08:39:54;11.80;85.30
26821;DHT22;37186;51.394;5.454;2022-12-29T08:42:55;11.80;85.70
26821;DHT22;37186;51.394;5.454;2022-12-29T08:45:56;11.80;86.10
26821;DHT22;37186;51.394;5.454;2022-12-29T08:48:57;11.80;85.80
26821;DHT22;37186;51.394;5.454;2022-12-29T08:51:58;11.80;85.70
26821;DHT22;37186;51.394;5.454;2022-12-29T08:54:58;11.80;85.70
26821;DHT22;37186;51.394;5.454;2022-12-29T08:57:59;11.90;85.10
26821;DHT22;37186;51.394;5.454;2022-12-29T09:00:59;11.80;85.80
26821;DHT22;37186;51.394;5.454;2022-12-29T09:04:00;11.90;85.70
26821;DHT22;37186;51.394;5.454;2022-12-29T09:07:00;11.90;85.20
26821;DHT22;37186;51.394;5.454;2022-12-29T09:10:01;11.90;85.10
26821;DHT22;37186;51.394;5.454;2022-12-29T09:13:02;11.90;84.80
26821;DHT22;37186;51.394;5.454;2022-12-29T09:16:02;11.90;85.80
26821;DHT22;37186;51.394;5.454;2022-12-29T09:19:03;11.90;84.90
26821;DHT22;37186;51.394;5.454;2022-12-29T09:22:04;11.90;85.20
26821;DHT22;37186;51.394;5.454;2022-12-29T09:25:04;11.90;85.50
26821;DHT22;37186;51.394;5.454;2022-12-29T09:28:05;11.90;84.70
26821;DHT22;37186;51.394;5.454;2022-12-29T09:31:07;11.90;85.50
26821;DHT22;37186;51.394;5.454;2022-12-29T09:34:08;11.90;85.50
26821;DHT22;37186;51.394;5.454;2022-12-29T09:37:09;11.90;84.80
26821;DHT22;37186;51.394;5.454;2022-12-29T09:40:24;11.90;84.90
26821;DHT22;37186;51.394;5.454;2022-12-29T09:43:58;12.00;84.80
26821;DHT22;37186;51.394;5.454;2022-12-29T09:47:01;12.00;85.70
26821;DHT22;37186;51.394;5.454;2022-12-29T09:53:20;12.00;85.70
26821;DHT22;37186;51.394;5.454;2022-12-29T09:56:24;12.00;84.40
26821;DHT22;37186;51.394;5.454;2022-12-29T09:59:41;12.00;85.30
26821;DHT22;37186;51.394;5.454;2022-12-29T10:02:49;12.00;84.70
26821;DHT22;37186;51.394;5.454;2022-12-29T10:05:58;12.00;85.20
26821;DHT22;37186;51.394;5.454;2022-12-29T10:09:25;12.00;85.50
26821;DHT22;37186;51.394;5.454;2022-12-29T10:23:44;11.90;85.80
26821;DHT22;37186;51.394;5.454;2022-12-29T10:26:46;11.90;85.30
26821;DHT22;37186;51.394;5.454;2022-12-29T10:29:52;11.90;85.70
26821;DHT22;37186;51.394;5.454;2022-12-29T10:33:01;11.90;85.50
26821;DHT22;37186;51.394;5.454;2022-12-29T10:36:13;11.80;85.60
26821;DHT22;37186;51.394;5.454;2022-12-29T10:45:34;11.80;85.50
26821;DHT22;37186;51.394;5.454;2022-12-29T10:48:35;11.80;85.00
26821;DHT22;37186;51.394;5.454;2022-12-29T10:51:41;11.80;85.40
26821;DHT22;37186;51.394;5.454;2022-12-29T10:54:48;11.80;85.60
26821;DHT22;37186;51.394;5.454;2022-12-29T10:57:51;11.80;85.80
26821;DHT22;37186;51.394;5.454;2022-12-29T11:00:53;11.80;85.80
26821;DHT22;37186;51.394;5.454;2022-12-29T11:04:10;11.80;85.90
26821;DHT22;37186;51.394;5.454;2022-12-29T11:07:18;11.80;85.70
26821;DHT22;37186;51.394;5.454;2022-12-29T11:13:50;11.80;85.70
26821;DHT22;37186;51.394;5.454;2022-12-29T11:17:02;11.80;85.70
26821;DHT22;37186;51.394;5.454;2022-12-29T11:23:32;11.80;85.40
26821;DHT22;37186;51.394;5.454;2022-12-29T11:26:33;11.90;85.70
26821;DHT22;37186;51.394;5.454;2022-12-29T11:29:39;11.80;85.80
26821;DHT22;37186;51.394;5.454;2022-12-29T11:32:51;11.80;85.70
26821;DHT22;37186;51.394;5.454;2022-12-29T11:35:58;11.80;86.00
26821;DHT22;37186;51.394;5.454;2022-12-29T11:38:59;11.90;86.00
26821;DHT22;37186;51.394;5.454;2022-12-29T11:42:01;11.90;85.90
26821;DHT22;37186;51.394;5.454;2022-12-29T11:45:21;11.90;85.90
26821;DHT22;37186;51.394;5.454;2022-12-29T11:48:22;11.90;85.80
26821;DHT22;37186;51.394;5.454;2022-12-29T11:51:29;11.90;85.90
26821;DHT22;37186;51.394;5.454;2022-12-29T11:54:35;12.00;85.90
26821;DHT22;37186;51.394;5.454;2022-12-29T11:57:41;12.00;86.10
26821;DHT22;37186;51.394;5.454;2022-12-29T12:00:42;12.00;85.90
26821;DHT22;37186;51.394;5.454;2022-12-29T12:03:51;12.00;85.80
26821;DHT22;37186;51.394;5.454;2022-12-29T12:07:04;12.00;86.30
26821;DHT22;37186;51.394;5.454;2022-12-29T12:10:26;12.10;85.50
26821;DHT22;37186;51.394;5.454;2022-12-29T12:13:34;12.10;85.70
26821;DHT22;37186;51.394;5.454;2022-12-29T12:16:40;12.10;85.50
26821;DHT22;37186;51.394;5.454;2022-12-29T12:19:56;12.00;85.50
26821;DHT22;37186;51.394;5.454;2022-12-29T12:26:35;12.10;85.40
26821;DHT22;37186;51.394;5.454;2022-12-29T12:33:17;12.10;85.30
26821;DHT22;37186;51.394;5.454;2022-12-29T12:36:43;12.10;85.30
26821;DHT22;37186;51.394;5.454;2022-12-29T12:40:27;12.10;85.50
26821;DHT22;37186;51.394;5.454;2022-12-29T12:43:41;12.20;83.80
26821;DHT22;37186;51.394;5.454;2022-12-29T12:50:19;12.10;85.00
26821;DHT22;37186;51.394;5.454;2022-12-29T13:00:15;12.10;85.10
26821;DHT22;37186;51.394;5.454;2022-12-29T13:03:44;12.10;84.70
26821;DHT22;37186;51.394;5.454;2022-12-29T13:07:16;12.10;84.90
26821;DHT22;37186;51.394;5.454;2022-12-29T13:17:27;12.20;84.50
26821;DHT22;37186;51.394;5.454;2022-12-29T13:20:49;12.10;84.90
26821;DHT22;37186;51.394;5.454;2022-12-29T13:30:26;12.20;85.20
26821;DHT22;37186;51.394;5.454;2022-12-29T13:36:45;12.10;85.30
26821;DHT22;37186;51.394;5.454;2022-12-29T13:39:52;12.10;85.30
26821;DHT22;37186;51.394;5.454;2022-12-29T13:42:55;12.10;85.30
26821;DHT22;37186;51.394;5.454;2022-12-29T13:49:22;12.00;85.50
26821;DHT22;37186;51.394;5.454;2022-12-29T13:52:59;12.00;85.50
26821;DHT22;37186;51.394;5.454;2022-12-29T13:56:19;12.00;85.70
26821;DHT22;37186;51.394;5.454;2022-12-29T13:59:44;12.00;86.40
26821;DHT22;37186;51.394;5.454;2022-12-29T14:03:23;11.90;85.70
26821;DHT22;37186;51.394;5.454;2022-12-29T14:06:29;11.90;85.70
26821;DHT22;37186;51.394;5.454;2022-12-29T14:12:43;11.90;86.10
26821;DHT22;37186;51.394;5.454;2022-12-29T14:15:57;11.90;85.90
26821;DHT22;37186;51.394;5.454;2022-12-29T14:19:13;11.90;85.90
26821;DHT22;37186;51.394;5.454;2022-12-29T14:22:23;11.90;86.10
26821;DHT22;37186;51.394;5.454;2022-12-29T14:25:59;11.90;86.10
26821;DHT22;37186;51.394;5.454;2022-12-29T14:35:47;11.90;85.90
26821;DHT22;37186;51.394;5.454;2022-12-29T14:38:49;11.90;86.00
26821;DHT22;37186;51.394;5.454;2022-12-29T14:45:26;11.80;85.90
26821;DHT22;37186;51.394;5.454;2022-12-29T14:48:35;11.80;85.90
26821;DHT22;37186;51.394;5.454;2022-12-29T14:51:37;11.80;85.80
26821;DHT22;37186;51.394;5.454;2022-12-29T14:57:41;11.80;85.90
26821;DHT22;37186;51.394;5.454;2022-12-29T15:00:42;11.80;86.00
26821;DHT22;37186;51.394;5.454;2022-12-29T15:03:45;11.80;85.90
26821;DHT22;37186;51.394;5.454;2022-12-29T15:06:48;11.80;86.00
26821;DHT22;37186;51.394;5.454;2022-12-29T15:09:56;11.80;85.80
26821;DHT22;37186;51.394;5.454;2022-12-29T15:13:04;11.80;85.90
26821;DHT22;37186;51.394;5.454;2022-12-29T15:19:22;11.70;85.80
26821;DHT22;37186;51.394;5.454;2022-12-29T15:22:23;11.70;85.50
26821;DHT22;37186;51.394;5.454;2022-12-29T15:25:25;11.70;85.60
26821;DHT22;37186;51.394;5.454;2022-12-29T15:28:27;11.70;85.70
26821;DHT22;37186;51.394;5.454;2022-12-29T15:31:28;11.70;85.60
26821;DHT22;37186;51.394;5.454;2022-12-29T15:34:30;11.70;85.70
26821;DHT22;37186;51.394;5.454;2022-12-29T15:37:34;11.60;85.40
26821;DHT22;37186;51.394;5.454;2022-12-29T15:40:38;11.60;85.50
26821;DHT22;37186;51.394;5.454;2022-12-29T15:46:45;11.60;85.50
26821;DHT22;37186;51.394;5.454;2022-12-29T15:49:53;11.50;85.60
26821;DHT22;37186;51.394;5.454;2022-12-29T15:52:58;11.50;85.40
26821;DHT22;37186;51.394;5.454;2022-12-29T15:56:05;11.50;85.60
26821;DHT22;37186;51.394;5.454;2022-12-29T15:59:26;11.40;85.20
26821;DHT22;37186;51.394;5.454;2022-12-29T16:02:27;11.40;85.20
26821;DHT22;37186;51.394;5.454;2022-12-29T16:05:36;11.40;85.40
26821;DHT22;37186;51.394;5.454;2022-12-29T16:08:38;11.40;85.40
26821;DHT22;37186;51.394;5.454;2022-12-29T16:11:43;11.40;85.20
26821;DHT22;37186;51.394;5.454;2022-12-29T16:14:48;11.30;85.00
26821;DHT22;37186;51.394;5.454;2022-12-29T16:17:51;11.30;84.90
26821;DHT22;37186;51.394;5.454;2022-12-29T16:20:53;11.20;84.90
26821;DHT22;37186;51.394;5.454;2022-12-29T16:24:00;11.20;84.90
26821;DHT22;37186;51.394;5.454;2022-12-29T16:27:19;11.10;84.60
26821;DHT22;37186;51.394;5.454;2022-12-29T16:30:25;11.10;84.70
26821;DHT22;37186;51.394;5.454;2022-12-29T16:33:45;11.00;84.00
26821;DHT22;37186;51.394;5.454;2022-12-29T16:40:28;11.00;84.50
26821;DHT22;37186;51.394;5.454;2022-12-29T16:43:35;10.90;84.50
26821;DHT22;37186;51.394;5.454;2022-12-29T16:46:56;10.90;84.80
26821;DHT22;37186;51.394;5.454;2022-12-29T16:50:11;10.90;84.80
26821;DHT22;37186;51.394;5.454;2022-12-29T16:53:24;10.90;83.80
26821;DHT22;37186;51.394;5.454;2022-12-29T16:56:32;10.80;84.00
26821;DHT22;37186;51.394;5.454;2022-12-29T16:59:42;10.80;84.40
26821;DHT22;37186;51.394;5.454;2022-12-29T17:02:43;10.80;83.80
26821;DHT22;37186;51.394;5.454;2022-12-29T17:05:46;10.80;84.50
26821;DHT22;37186;51.394;5.454;2022-12-29T17:08:47;10.70;84.30
26821;DHT22;37186;51.394;5.454;2022-12-29T17:11:56;10.70;84.40
26821;DHT22;37186;51.394;5.454;2022-12-29T17:15:01;10.70;84.20
26821;DHT22;37186;51.394;5.454;2022-12-29T17:18:02;10.60;84.30
26821;DHT22;37186;51.394;5.454;2022-12-29T17:21:03;10.60;84.00
26821;DHT22;37186;51.394;5.454;2022-12-29T17:24:07;10.60;84.20
26821;DHT22;37186;51.394;5.454;2022-12-29T17:27:20;10.60;84.20
26821;DHT22;37186;51.394;5.454;2022-12-29T17:30:23;10.60;84.50
26821;DHT22;37186;51.394;5.454;2022-12-29T17:33:24;10.50;84.70
26821;DHT22;37186;51.394;5.454;2022-12-29T17:36:25;10.50;84.40
26821;DHT22;37186;51.394;5.454;2022-12-29T17:39:25;10.50;84.40
26821;DHT22;37186;51.394;5.454;2022-12-29T17:42:26;10.50;84.40
26821;DHT22;37186;51.394;5.454;2022-12-29T17:45:28;10.50;84.60
26821;DHT22;37186;51.394;5.454;2022-12-29T17:48:29;10.40;84.60
26821;DHT22;37186;51.394;5.454;2022-12-29T17:51:30;10.40;84.50
26821;DHT22;37186;51.394;5.454;2022-12-29T17:54:31;10.50;84.70
26821;DHT22;37186;51.394;5.454;2022-12-29T17:57:31;10.40;84.70
26821;DHT22;37186;51.394;5.454;2022-12-29T18:00:32;10.40;84.60
26821;DHT22;37186;51.394;5.454;2022-12-29T18:03:38;10.40;84.80
26821;DHT22;37186;51.394;5.454;2022-12-29T18:06:40;10.40;84.70
26821;DHT22;37186;51.394;5.454;2022-12-29T18:09:41;10.40;84.30
26821;DHT22;37186;51.394;5.454;2022-12-29T18:12:47;10.30;84.10
26821;DHT22;37186;51.394;5.454;2022-12-29T18:15:49;10.30;84.30
26821;DHT22;37186;51.394;5.454;2022-12-29T18:18:49;10.30;84.30
26821;DHT22;37186;51.394;5.454;2022-12-29T18:21:50;10.30;84.60
26821;DHT22;37186;51.394;5.454;2022-12-29T18:24:50;10.30;84.60
26821;DHT22;37186;51.394;5.454;2022-12-29T18:27:51;10.30;84.50
26821;DHT22;37186;51.394;5.454;2022-12-29T18:30:53;10.30;84.70
26821;DHT22;37186;51.394;5.454;2022-12-29T18:33:54;10.30;84.60
26821;DHT22;37186;51.394;5.454;2022-12-29T18:36:55;10.30;84.30
26821;DHT22;37186;51.394;5.454;2022-12-29T18:39:58;10.30;84.70
26821;DHT22;37186;51.394;5.454;2022-12-29T18:42:59;10.30;84.30
26821;DHT22;37186;51.394;5.454;2022-12-29T18:45:59;10.30;84.60
26821;DHT22;37186;51.394;5.454;2022-12-29T18:49:00;10.20;84.80
26821;DHT22;37186;51.394;5.454;2022-12-29T18:52:00;10.20;84.70
26821;DHT22;37186;51.394;5.454;2022-12-29T18:55:01;10.20;84.60
26821;DHT22;37186;51.394;5.454;2022-12-29T18:58:01;10.20;84.80
26821;DHT22;37186;51.394;5.454;2022-12-29T19:01:03;10.20;84.80
26821;DHT22;37186;51.394;5.454;2022-12-29T19:04:04;10.20;84.70
26821;DHT22;37186;51.394;5.454;2022-12-29T19:07:04;10.20;84.60
26821;DHT22;37186;51.394;5.454;2022-12-29T19:10:05;10.20;84.50
26821;DHT22;37186;51.394;5.454;2022-12-29T19:13:08;10.20;84.50
26821;DHT22;37186;51.394;5.454;2022-12-29T19:16:18;10.10;84.60
26821;DHT22;37186;51.394;5.454;2022-12-29T19:19:19;10.10;84.70
26821;DHT22;37186;51.394;5.454;2022-12-29T19:22:20;10.10;84.50
26821;DHT22;37186;51.394;5.454;2022-12-29T19:25:21;10.10;84.50
26821;DHT22;37186;51.394;5.454;2022-12-29T19:28:26;10.10;84.50
26821;DHT22;37186;51.394;5.454;2022-12-29T19:31:27;10.10;84.40
26821;DHT22;37186;51.394;5.454;2022-12-29T19:34:28;10.00;84.40
26821;DHT22;37186;51.394;5.454;2022-12-29T19:37:28;10.00;84.50
26821;DHT22;37186;51.394;5.454;2022-12-29T19:40:29;10.00;84.70
26821;DHT22;37186;51.394;5.454;2022-12-29T19:43:29;10.00;84.60
26821;DHT22;37186;51.394;5.454;2022-12-29T19:46:30;10.00;84.60
26821;DHT22;37186;51.394;5.454;2022-12-29T19:49:30;10.00;84.50
26821;DHT22;37186;51.394;5.454;2022-12-29T19:52:31;10.00;84.70
26821;DHT22;37186;51.394;5.454;2022-12-29T19:55:32;9.90;84.70
26821;DHT22;37186;51.394;5.454;2022-12-29T19:58:34;9.90;84.70
26821;DHT22;37186;51.394;5.454;2022-12-29T20:01:35;10.00;84.60
26821;DHT22;37186;51.394;5.454;2022-12-29T20:04:36;9.90;84.40
26821;DHT22;37186;51.394;5.454;2022-12-29T20:07:37;9.90;84.30
26821;DHT22;37186;51.394;5.454;2022-12-29T20:10:37;9.90;84.50
26821;DHT22;37186;51.394;5.454;2022-12-29T20:13:38;9.90;84.70
26821;DHT22;37186;51.394;5.454;2022-12-29T20:16:39;9.90;84.50
26821;DHT22;37186;51.394;5.454;2022-12-29T20:19:41;9.80;84.40
26821;DHT22;37186;51.394;5.454;2022-12-29T20:22:41;9.80;84.50
26821;DHT22;37186;51.394;5.454;2022-12-29T20:25:42;9.80;84.50
26821;DHT22;37186;51.394;5.454;2022-12-29T20:28:43;9.80;84.50
26821;DHT22;37186;51.394;5.454;2022-12-29T20:31:45;9.90;84.40
26821;DHT22;37186;51.394;5.454;2022-12-29T20:34:46;9.80;84.40
26821;DHT22;37186;51.394;5.454;2022-12-29T20:37:46;9.80;84.30
26821;DHT22;37186;51.394;5.454;2022-12-29T20:40:47;9.80;84.30
26821;DHT22;37186;51.394;5.454;2022-12-29T20:43:49;9.80;84.40
26821;DHT22;37186;51.394;5.454;2022-12-29T20:46:49;9.80;84.20
26821;DHT22;37186;51.394;5.454;2022-12-29T20:49:50;9.70;84.20
26821;DHT22;37186;51.394;5.454;2022-12-29T20:52:50;9.70;84.00
26821;DHT22;37186;51.394;5.454;2022-12-29T20:55:53;9.70;84.00
26821;DHT22;37186;51.394;5.454;2022-12-29T20:58:55;9.70;83.90
26821;DHT22;37186;51.394;5.454;2022-12-29T21:01:56;9.80;84.20
26821;DHT22;37186;51.394;5.454;2022-12-29T21:04:56;9.80;84.40
26821;DHT22;37186;51.394;5.454;2022-12-29T21:07:57;9.70;84.20
26821;DHT22;37186;51.394;5.454;2022-12-29T21:10:59;9.70;84.20
26821;DHT22;37186;51.394;5.454;2022-12-29T21:14:00;9.70;84.30
26821;DHT22;37186;51.394;5.454;2022-12-29T21:17:00;9.70;84.20
26821;DHT22;37186;51.394;5.454;2022-12-29T21:20:02;9.70;84.30
26821;DHT22;37186;51.394;5.454;2022-12-29T21:23:02;9.70;83.70
26821;DHT22;37186;51.394;5.454;2022-12-29T21:26:10;9.70;83.90